sensor_id;sensor_type;location;lat;lon;timestamp;P1;durP1;ratioP1;P2;durP2;ratioP2
11865;SDS011;5992;52.744;6.898;2023-08-06T00:02:31;5.67;;;3.77;;
11865;SDS011;5992;52.744;6.898;2023-08-06T00:05:45;2.87;;;2.67;;
11865;SDS011;5992;52.744;6.898;2023-08-06T00:08:58;3.40;;;3.10;;
11865;SDS011;5992;52.744;6.898;2023-08-06T00:12:10;5.13;;;2.77;;
11865;SDS011;5992;52.744;6.898;2023-08-06T00:15:10;4.30;;;3.40;;
11865;SDS011;5992;52.744;6.898;2023-08-06T00:18:34;3.65;;;3.35;;
11865;SDS011;5992;52.744;6.898;2023-08-06T00:21:35;4.90;;;3.43;;
11865;SDS011;5992;52.744;6.898;2023-08-06T00:25:00;5.95;;;3.40;;
11865;SDS011;5992;52.744;6.898;2023-08-06T00:28:12;3.73;;;2.97;;
11865;SDS011;5992;52.744;6.898;2023-08-06T00:31:24;3.40;;;3.10;;
11865;SDS011;5992;52.744;6.898;2023-08-06T00:34:24;3.30;;;3.00;;
11865;SDS011;5992;52.744;6.898;2023-08-06T00:37:37;3.20;;;3.00;;
11865;SDS011;5992;52.744;6.898;2023-08-06T00:40:50;3.90;;;3.60;;
11865;SDS011;5992;52.744;6.898;2023-08-06T00:44:03;3.50;;;3.20;;
11865;SDS011;5992;52.744;6.898;2023-08-06T00:47:27;4.07;;;3.67;;
11865;SDS011;5992;52.744;6.898;2023-08-06T00:50:40;3.90;;;3.55;;
11865;SDS011;5992;52.744;6.898;2023-08-06T00:53:41;4.35;;;3.70;;
11865;SDS011;5992;52.744;6.898;2023-08-06T00:57:06;8.70;;;3.70;;
11865;SDS011;5992;52.744;6.898;2023-08-06T01:00:18;3.93;;;3.53;;
11865;SDS011;5992;52.744;6.898;2023-08-06T01:03:42;3.30;;;3.10;;
11865;SDS011;5992;52.744;6.898;2023-08-06T01:06:43;4.47;;;3.50;;
11865;SDS011;5992;52.744;6.898;2023-08-06T01:10:19;4.25;;;3.50;;
11865;SDS011;5992;52.744;6.898;2023-08-06T01:13:31;4.47;;;3.77;;
11865;SDS011;5992;52.744;6.898;2023-08-06T01:16:54;4.60;;;4.10;;
11865;SDS011;5992;52.744;6.898;2023-08-06T01:20:06;3.70;;;3.40;;
11865;SDS011;5992;52.744;6.898;2023-08-06T01:23:20;5.57;;;3.63;;
11865;SDS011;5992;52.744;6.898;2023-08-06T01:26:35;4.20;;;3.10;;
11865;SDS011;5992;52.744;6.898;2023-08-06T01:29:59;3.40;;;3.10;;
11865;SDS011;5992;52.744;6.898;2023-08-06T01:33:12;5.35;;;3.45;;
11865;SDS011;5992;52.744;6.898;2023-08-06T01:36:34;5.95;;;3.40;;
11865;SDS011;5992;52.744;6.898;2023-08-06T01:39:47;4.05;;;3.75;;
11865;SDS011;5992;52.744;6.898;2023-08-06T01:43:12;4.80;;;4.00;;
11865;SDS011;5992;52.744;6.898;2023-08-06T01:46:12;4.63;;;3.77;;
11865;SDS011;5992;52.744;6.898;2023-08-06T01:49:24;4.40;;;4.00;;
11865;SDS011;5992;52.744;6.898;2023-08-06T01:52:37;6.05;;;3.60;;
11865;SDS011;5992;52.744;6.898;2023-08-06T01:55:50;4.50;;;4.00;;
11865;SDS011;5992;52.744;6.898;2023-08-06T01:59:03;5.55;;;4.70;;
11865;SDS011;5992;52.744;6.898;2023-08-06T02:02:16;4.40;;;4.00;;
11865;SDS011;5992;52.744;6.898;2023-08-06T02:05:28;7.23;;;4.43;;
11865;SDS011;5992;52.744;6.898;2023-08-06T02:08:28;6.27;;;5.67;;
11865;SDS011;5992;52.744;6.898;2023-08-06T02:11:41;6.20;;;4.60;;
11865;SDS011;5992;52.744;6.898;2023-08-06T02:14:54;5.85;;;4.70;;
11865;SDS011;5992;52.744;6.898;2023-08-06T02:18:07;5.40;;;4.00;;
11865;SDS011;5992;52.744;6.898;2023-08-06T02:21:19;4.40;;;4.10;;
11865;SDS011;5992;52.744;6.898;2023-08-06T02:24:32;3.90;;;3.60;;
11865;SDS011;5992;52.744;6.898;2023-08-06T02:27:33;4.57;;;3.60;;
11865;SDS011;5992;52.744;6.898;2023-08-06T02:30:59;4.40;;;4.03;;
11865;SDS011;5992;52.744;6.898;2023-08-06T02:33:59;7.13;;;4.20;;
11865;SDS011;5992;52.744;6.898;2023-08-06T02:37:11;4.70;;;4.25;;
11865;SDS011;5992;52.744;6.898;2023-08-06T02:40:11;4.80;;;4.35;;
11865;SDS011;5992;52.744;6.898;2023-08-06T02:43:24;4.90;;;4.50;;
11865;SDS011;5992;52.744;6.898;2023-08-06T02:46:40;4.40;;;4.00;;
11865;SDS011;5992;52.744;6.898;2023-08-06T02:49:52;10.55;;;4.55;;
11865;SDS011;5992;52.744;6.898;2023-08-06T02:53:04;4.50;;;4.10;;
11865;SDS011;5992;52.744;6.898;2023-08-06T02:56:29;6.30;;;4.00;;
11865;SDS011;5992;52.744;6.898;2023-08-06T02:59:46;4.37;;;3.97;;
11865;SDS011;5992;52.744;6.898;2023-08-06T03:03:10;5.43;;;4.40;;
11865;SDS011;5992;52.744;6.898;2023-08-06T03:06:22;5.20;;;4.70;;
11865;SDS011;5992;52.744;6.898;2023-08-06T03:09:35;5.50;;;5.00;;
11865;SDS011;5992;52.744;6.898;2023-08-06T03:12:47;4.40;;;4.00;;
11865;SDS011;5992;52.744;6.898;2023-08-06T03:16:01;4.47;;;4.07;;
11865;SDS011;5992;52.744;6.898;2023-08-06T03:19:24;6.55;;;4.20;;
11865;SDS011;5992;52.744;6.898;2023-08-06T03:22:36;5.05;;;4.60;;
11865;SDS011;5992;52.744;6.898;2023-08-06T03:25:48;8.07;;;4.07;;
11865;SDS011;5992;52.744;6.898;2023-08-06T03:29:00;5.23;;;4.67;;
11865;SDS011;5992;52.744;6.898;2023-08-06T03:32:14;4.70;;;4.23;;
11865;SDS011;5992;52.744;6.898;2023-08-06T03:35:39;8.65;;;3.95;;
11865;SDS011;5992;52.744;6.898;2023-08-06T03:38:51;6.90;;;4.45;;
11865;SDS011;5992;52.744;6.898;2023-08-06T03:42:03;4.65;;;4.20;;
11865;SDS011;5992;52.744;6.898;2023-08-06T03:45:16;6.17;;;4.27;;
11865;SDS011;5992;52.744;6.898;2023-08-06T03:48:43;5.00;;;4.60;;
11865;SDS011;5992;52.744;6.898;2023-08-06T03:52:07;5.57;;;4.60;;
11865;SDS011;5992;52.744;6.898;2023-08-06T03:55:19;5.77;;;4.30;;
11865;SDS011;5992;52.744;6.898;2023-08-06T03:58:43;4.40;;;4.00;;
11865;SDS011;5992;52.744;6.898;2023-08-06T04:02:08;6.40;;;5.17;;
11865;SDS011;5992;52.744;6.898;2023-08-06T04:05:22;4.40;;;3.95;;
11865;SDS011;5992;52.744;6.898;2023-08-06T04:08:33;6.00;;;4.97;;
11865;SDS011;5992;52.744;6.898;2023-08-06T04:11:45;5.70;;;5.15;;
11865;SDS011;5992;52.744;6.898;2023-08-06T04:14:45;4.65;;;4.35;;
11865;SDS011;5992;52.744;6.898;2023-08-06T04:17:58;6.27;;;4.80;;
11865;SDS011;5992;52.744;6.898;2023-08-06T04:21:01;5.00;;;4.50;;
11865;SDS011;5992;52.744;6.898;2023-08-06T04:24:25;5.23;;;4.73;;
11865;SDS011;5992;52.744;6.898;2023-08-06T04:27:25;7.50;;;5.00;;
11865;SDS011;5992;52.744;6.898;2023-08-06T04:30:37;5.03;;;4.63;;
11865;SDS011;5992;52.744;6.898;2023-08-06T04:33:49;4.20;;;3.90;;
11865;SDS011;5992;52.744;6.898;2023-08-06T04:37:04;7.25;;;5.00;;
11865;SDS011;5992;52.744;6.898;2023-08-06T04:40:28;8.17;;;5.00;;
11865;SDS011;5992;52.744;6.898;2023-08-06T04:43:40;4.57;;;3.80;;
11865;SDS011;5992;52.744;6.898;2023-08-06T04:46:52;4.97;;;4.47;;
11865;SDS011;5992;52.744;6.898;2023-08-06T04:50:06;4.43;;;4.03;;
11865;SDS011;5992;52.744;6.898;2023-08-06T04:53:08;5.25;;;4.75;;
11865;SDS011;5992;52.744;6.898;2023-08-06T04:56:32;6.20;;;4.90;;
11865;SDS011;5992;52.744;6.898;2023-08-06T04:59:32;4.90;;;4.15;;
11865;SDS011;5992;52.744;6.898;2023-08-06T05:02:45;6.10;;;4.50;;
11865;SDS011;5992;52.744;6.898;2023-08-06T05:05:45;6.13;;;4.67;;
11865;SDS011;5992;52.744;6.898;2023-08-06T05:09:01;5.20;;;4.47;;
11865;SDS011;5992;52.744;6.898;2023-08-06T05:12:14;5.60;;;5.10;;
11865;SDS011;5992;52.744;6.898;2023-08-06T05:15:27;7.97;;;6.40;;
11865;SDS011;5992;52.744;6.898;2023-08-06T05:18:27;8.50;;;6.15;;
11865;SDS011;5992;52.744;6.898;2023-08-06T05:21:40;5.90;;;5.30;;
11865;SDS011;5992;52.744;6.898;2023-08-06T05:24:41;9.03;;;7.50;;
11865;SDS011;5992;52.744;6.898;2023-08-06T05:28:06;10.27;;;6.97;;
11865;SDS011;5992;52.744;6.898;2023-08-06T05:31:18;7.20;;;6.50;;
11865;SDS011;5992;52.744;6.898;2023-08-06T05:34:30;7.37;;;6.03;;
11865;SDS011;5992;52.744;6.898;2023-08-06T05:37:42;7.85;;;6.00;;
11865;SDS011;5992;52.744;6.898;2023-08-06T05:40:55;7.00;;;6.30;;
11865;SDS011;5992;52.744;6.898;2023-08-06T05:44:08;6.60;;;6.00;;
11865;SDS011;5992;52.744;6.898;2023-08-06T05:47:20;10.40;;;7.60;;
11865;SDS011;5992;52.744;6.898;2023-08-06T05:50:20;7.27;;;6.57;;
11865;SDS011;5992;52.744;6.898;2023-08-06T05:53:32;9.60;;;7.55;;
11865;SDS011;5992;52.744;6.898;2023-08-06T05:56:33;8.30;;;7.40;;
11865;SDS011;5992;52.744;6.898;2023-08-06T05:59:58;8.55;;;7.85;;
11865;SDS011;5992;52.744;6.898;2023-08-06T06:03:10;8.40;;;7.60;;
11865;SDS011;5992;52.744;6.898;2023-08-06T06:06:10;8.13;;;7.43;;
11865;SDS011;5992;52.744;6.898;2023-08-06T06:09:34;7.13;;;6.43;;
11865;SDS011;5992;52.744;6.898;2023-08-06T06:12:35;8.00;;;7.30;;
11865;SDS011;5992;52.744;6.898;2023-08-06T06:16:00;8.03;;;7.23;;
11865;SDS011;5992;52.744;6.898;2023-08-06T06:19:00;8.35;;;7.20;;
11865;SDS011;5992;52.744;6.898;2023-08-06T06:22:12;7.40;;;6.65;;
11865;SDS011;5992;52.744;6.898;2023-08-06T06:25:24;7.57;;;6.87;;
11865;SDS011;5992;52.744;6.898;2023-08-06T06:28:37;7.03;;;5.50;;
11865;SDS011;5992;52.744;6.898;2023-08-06T06:31:50;8.43;;;6.63;;
11865;SDS011;5992;52.744;6.898;2023-08-06T06:35:02;7.40;;;6.70;;
11865;SDS011;5992;52.744;6.898;2023-08-06T06:38:03;11.70;;;6.25;;
11865;SDS011;5992;52.744;6.898;2023-08-06T06:41:15;8.40;;;6.70;;
11865;SDS011;5992;52.744;6.898;2023-08-06T06:44:30;6.10;;;5.50;;
11865;SDS011;5992;52.744;6.898;2023-08-06T06:47:56;6.70;;;6.10;;
11865;SDS011;5992;52.744;6.898;2023-08-06T06:50:56;6.67;;;6.13;;
11865;SDS011;5992;52.744;6.898;2023-08-06T06:54:08;7.10;;;6.00;;
11865;SDS011;5992;52.744;6.898;2023-08-06T06:57:08;9.65;;;6.30;;
11865;SDS011;5992;52.744;6.898;2023-08-06T07:00:21;7.15;;;5.75;;
11865;SDS011;5992;52.744;6.898;2023-08-06T07:03:34;5.93;;;5.40;;
11865;SDS011;5992;52.744;6.898;2023-08-06T07:06:47;9.33;;;5.87;;
11865;SDS011;5992;52.744;6.898;2023-08-06T07:09:59;5.47;;;5.07;;
11865;SDS011;5992;52.744;6.898;2023-08-06T07:13:11;6.00;;;5.43;;
11865;SDS011;5992;52.744;6.898;2023-08-06T07:16:12;6.20;;;5.70;;
11865;SDS011;5992;52.744;6.898;2023-08-06T07:19:36;5.55;;;5.10;;
11865;SDS011;5992;52.744;6.898;2023-08-06T07:22:36;5.63;;;5.20;;
11865;SDS011;5992;52.744;6.898;2023-08-06T07:25:48;5.13;;;4.70;;
11865;SDS011;5992;52.744;6.898;2023-08-06T07:29:00;5.17;;;4.77;;
11865;SDS011;5992;52.744;6.898;2023-08-06T07:32:14;5.57;;;5.07;;
11865;SDS011;5992;52.744;6.898;2023-08-06T07:35:28;6.17;;;5.17;;
11865;SDS011;5992;52.744;6.898;2023-08-06T07:38:52;4.90;;;4.50;;
11865;SDS011;5992;52.744;6.898;2023-08-06T07:41:52;4.90;;;4.50;;
11865;SDS011;5992;52.744;6.898;2023-08-06T07:45:06;4.80;;;4.30;;
11865;SDS011;5992;52.744;6.898;2023-08-06T07:48:19;11.50;;;5.37;;
11865;SDS011;5992;52.744;6.898;2023-08-06T07:51:44;8.27;;;5.10;;
11865;SDS011;5992;52.744;6.898;2023-08-06T07:54:44;5.80;;;5.30;;
11865;SDS011;5992;52.744;6.898;2023-08-06T07:57:56;5.10;;;4.70;;
11865;SDS011;5992;52.744;6.898;2023-08-06T08:00:56;8.37;;;5.33;;
11865;SDS011;5992;52.744;6.898;2023-08-06T08:04:10;5.60;;;5.10;;
11865;SDS011;5992;52.744;6.898;2023-08-06T08:07:23;4.80;;;4.40;;
11865;SDS011;5992;52.744;6.898;2023-08-06T08:10:35;6.47;;;4.60;;
11865;SDS011;5992;52.744;6.898;2023-08-06T08:13:47;5.80;;;5.30;;
11865;SDS011;5992;52.744;6.898;2023-08-06T08:17:00;6.25;;;4.45;;
11865;SDS011;5992;52.744;6.898;2023-08-06T08:20:15;5.47;;;5.00;;
11865;SDS011;5992;52.744;6.898;2023-08-06T08:23:39;5.10;;;4.60;;
11865;SDS011;5992;52.744;6.898;2023-08-06T08:26:39;4.77;;;4.40;;
11865;SDS011;5992;52.744;6.898;2023-08-06T08:29:52;12.40;;;4.60;;
11865;SDS011;5992;52.744;6.898;2023-08-06T08:32:52;4.00;;;3.70;;
11865;SDS011;5992;52.744;6.898;2023-08-06T08:36:19;4.45;;;4.15;;
11865;SDS011;5992;52.744;6.898;2023-08-06T08:39:31;5.00;;;4.37;;
11865;SDS011;5992;52.744;6.898;2023-08-06T08:42:44;4.80;;;4.33;;
11865;SDS011;5992;52.744;6.898;2023-08-06T08:45:44;5.47;;;4.03;;
11865;SDS011;5992;52.744;6.898;2023-08-06T08:49:08;4.40;;;4.00;;
11865;SDS011;5992;52.744;6.898;2023-08-06T08:52:10;4.27;;;3.83;;
11865;SDS011;5992;52.744;6.898;2023-08-06T08:55:35;4.10;;;3.70;;
11865;SDS011;5992;52.744;6.898;2023-08-06T08:58:47;4.20;;;3.80;;
11865;SDS011;5992;52.744;6.898;2023-08-06T09:02:12;3.80;;;3.50;;
11865;SDS011;5992;52.744;6.898;2023-08-06T09:05:24;3.90;;;3.50;;
11865;SDS011;5992;52.744;6.898;2023-08-06T09:08:51;5.43;;;3.63;;
11865;SDS011;5992;52.744;6.898;2023-08-06T09:12:04;5.07;;;3.60;;
11865;SDS011;5992;52.744;6.898;2023-08-06T09:15:26;3.90;;;3.60;;
11865;SDS011;5992;52.744;6.898;2023-08-06T09:18:38;3.87;;;3.57;;
11865;SDS011;5992;52.744;6.898;2023-08-06T09:22:03;3.40;;;3.10;;
11865;SDS011;5992;52.744;6.898;2023-08-06T09:25:05;3.40;;;3.20;;
11865;SDS011;5992;52.744;6.898;2023-08-06T09:28:36;3.30;;;3.10;;
11865;SDS011;5992;52.744;6.898;2023-08-06T09:31:49;7.13;;;3.27;;
11865;SDS011;5992;52.744;6.898;2023-08-06T09:35:15;3.93;;;3.13;;
11865;SDS011;5992;52.744;6.898;2023-08-06T09:38:27;3.40;;;3.10;;
11865;SDS011;5992;52.744;6.898;2023-08-06T09:41:55;4.87;;;3.40;;
11865;SDS011;5992;52.744;6.898;2023-08-06T09:45:06;4.20;;;3.10;;
11865;SDS011;5992;52.744;6.898;2023-08-06T09:48:19;2.77;;;2.50;;
11865;SDS011;5992;52.744;6.898;2023-08-06T09:51:31;3.10;;;2.80;;
11865;SDS011;5992;52.744;6.898;2023-08-06T09:54:45;2.93;;;2.70;;
11865;SDS011;5992;52.744;6.898;2023-08-06T09:58:02;3.33;;;2.80;;
11865;SDS011;5992;52.744;6.898;2023-08-06T10:01:26;3.40;;;3.10;;
11865;SDS011;5992;52.744;6.898;2023-08-06T10:04:50;3.27;;;2.80;;
11865;SDS011;5992;52.744;6.898;2023-08-06T10:08:49;3.40;;;3.10;;
11865;SDS011;5992;52.744;6.898;2023-08-06T10:11:31;2.95;;;2.55;;
11865;SDS011;5992;52.744;6.898;2023-08-06T10:14:48;2.95;;;2.50;;
11865;SDS011;5992;52.744;6.898;2023-08-06T10:18:13;3.83;;;2.33;;
11865;SDS011;5992;52.744;6.898;2023-08-06T10:21:29;3.40;;;2.83;;
11865;SDS011;5992;52.744;6.898;2023-08-06T10:24:53;3.47;;;2.63;;
11865;SDS011;5992;52.744;6.898;2023-08-06T10:28:07;2.83;;;2.57;;
11865;SDS011;5992;52.744;6.898;2023-08-06T10:35:03;2.40;;;2.20;;
11865;SDS011;5992;52.744;6.898;2023-08-06T10:38:28;3.70;;;2.47;;
11865;SDS011;5992;52.744;6.898;2023-08-06T10:41:29;3.00;;;2.70;;
11865;SDS011;5992;52.744;6.898;2023-08-06T10:45:11;2.40;;;2.20;;
11865;SDS011;5992;52.744;6.898;2023-08-06T10:48:30;2.57;;;2.37;;
11865;SDS011;5992;52.744;6.898;2023-08-06T10:51:55;2.40;;;2.20;;
11865;SDS011;5992;52.744;6.898;2023-08-06T10:55:08;2.40;;;2.25;;
11865;SDS011;5992;52.744;6.898;2023-08-06T10:58:21;2.40;;;2.20;;
11865;SDS011;5992;52.744;6.898;2023-08-06T11:01:33;2.00;;;1.90;;
11865;SDS011;5992;52.744;6.898;2023-08-06T11:04:58;2.30;;;2.20;;
11865;SDS011;5992;52.744;6.898;2023-08-06T11:08:11;2.37;;;2.27;;
11865;SDS011;5992;52.744;6.898;2023-08-06T11:11:36;2.47;;;2.00;;
11865;SDS011;5992;52.744;6.898;2023-08-06T11:14:51;1.93;;;1.83;;
11865;SDS011;5992;52.744;6.898;2023-08-06T11:18:05;2.30;;;2.13;;
11865;SDS011;5992;52.744;6.898;2023-08-06T11:21:18;2.05;;;1.95;;
11865;SDS011;5992;52.744;6.898;2023-08-06T11:24:43;2.37;;;2.10;;
11865;SDS011;5992;52.744;6.898;2023-08-06T11:27:55;2.30;;;1.97;;
11865;SDS011;5992;52.744;6.898;2023-08-06T11:31:07;1.87;;;1.63;;
11865;SDS011;5992;52.744;6.898;2023-08-06T11:34:19;2.30;;;2.10;;
11865;SDS011;5992;52.744;6.898;2023-08-06T11:37:31;1.93;;;1.83;;
11865;SDS011;5992;52.744;6.898;2023-08-06T11:40:44;1.83;;;1.73;;
11865;SDS011;5992;52.744;6.898;2023-08-06T11:44:10;2.80;;;1.57;;
11865;SDS011;5992;52.744;6.898;2023-08-06T11:47:22;2.70;;;1.90;;
11865;SDS011;5992;52.744;6.898;2023-08-06T11:50:36;5.10;;;2.35;;
11865;SDS011;5992;52.744;6.898;2023-08-06T11:53:48;2.00;;;1.90;;
11865;SDS011;5992;52.744;6.898;2023-08-06T11:57:13;2.55;;;2.40;;
11865;SDS011;5992;52.744;6.898;2023-08-06T12:00:26;1.73;;;1.63;;
11865;SDS011;5992;52.744;6.898;2023-08-06T12:03:51;2.00;;;1.90;;
11865;SDS011;5992;52.744;6.898;2023-08-06T12:06:51;1.90;;;1.80;;
11865;SDS011;5992;52.744;6.898;2023-08-06T12:10:03;2.77;;;2.10;;
11865;SDS011;5992;52.744;6.898;2023-08-06T12:13:18;2.40;;;2.20;;
11865;SDS011;5992;52.744;6.898;2023-08-06T12:16:42;2.20;;;2.00;;
11865;SDS011;5992;52.744;6.898;2023-08-06T12:19:45;2.30;;;1.67;;
11865;SDS011;5992;52.744;6.898;2023-08-06T12:23:09;2.00;;;1.90;;
11865;SDS011;5992;52.744;6.898;2023-08-06T12:26:10;2.27;;;1.70;;
11865;SDS011;5992;52.744;6.898;2023-08-06T12:29:25;1.70;;;1.60;;
11865;SDS011;5992;52.744;6.898;2023-08-06T12:32:35;1.50;;;1.40;;
11865;SDS011;5992;52.744;6.898;2023-08-06T12:35:59;1.63;;;1.53;;
11865;SDS011;5992;52.744;6.898;2023-08-06T12:38:59;2.50;;;1.73;;
11865;SDS011;5992;52.744;6.898;2023-08-06T12:42:12;1.80;;;1.53;;
11865;SDS011;5992;52.744;6.898;2023-08-06T12:45:13;3.15;;;2.00;;
11865;SDS011;5992;52.744;6.898;2023-08-06T12:48:38;1.00;;;1.00;;
11865;SDS011;5992;52.744;6.898;2023-08-06T12:51:38;1.40;;;1.40;;
11865;SDS011;5992;52.744;6.898;2023-08-06T12:54:50;1.40;;;1.30;;
11865;SDS011;5992;52.744;6.898;2023-08-06T12:57:50;3.33;;;1.40;;
11865;SDS011;5992;52.744;6.898;2023-08-06T13:01:03;1.50;;;1.50;;
11865;SDS011;5992;52.744;6.898;2023-08-06T13:04:15;1.67;;;1.50;;
11865;SDS011;5992;52.744;6.898;2023-08-06T13:07:27;1.43;;;1.37;;
11865;SDS011;5992;52.744;6.898;2023-08-06T13:10:27;1.85;;;1.55;;
11865;SDS011;5992;52.744;6.898;2023-08-06T13:13:51;1.50;;;1.40;;
11865;SDS011;5992;52.744;6.898;2023-08-06T13:16:52;1.27;;;1.17;;
11865;SDS011;5992;52.744;6.898;2023-08-06T13:20:17;2.67;;;1.47;;
11865;SDS011;5992;52.744;6.898;2023-08-06T13:23:17;1.10;;;1.10;;
11865;SDS011;5992;52.744;6.898;2023-08-06T13:26:42;3.23;;;1.50;;
11865;SDS011;5992;52.744;6.898;2023-08-06T13:29:54;1.30;;;1.27;;
11865;SDS011;5992;52.744;6.898;2023-08-06T13:33:07;3.73;;;1.47;;
11865;SDS011;5992;52.744;6.898;2023-08-06T13:36:20;1.40;;;1.40;;
11865;SDS011;5992;52.744;6.898;2023-08-06T13:39:32;2.00;;;1.90;;
11865;SDS011;5992;52.744;6.898;2023-08-06T13:42:32;1.70;;;1.60;;
11865;SDS011;5992;52.744;6.898;2023-08-06T13:45:45;2.30;;;1.77;;
11865;SDS011;5992;52.744;6.898;2023-08-06T13:48:47;2.23;;;1.90;;
11865;SDS011;5992;52.744;6.898;2023-08-06T13:52:10;2.00;;;1.80;;
11865;SDS011;5992;52.744;6.898;2023-08-06T13:55:10;2.05;;;1.80;;
11865;SDS011;5992;52.744;6.898;2023-08-06T13:58:22;2.17;;;1.80;;
11865;SDS011;5992;52.744;6.898;2023-08-06T14:01:22;1.50;;;1.40;;
11865;SDS011;5992;52.744;6.898;2023-08-06T14:04:37;1.80;;;1.70;;
11865;SDS011;5992;52.744;6.898;2023-08-06T14:07:49;1.47;;;1.37;;
11865;SDS011;5992;52.744;6.898;2023-08-06T14:11:01;2.10;;;1.77;;
11865;SDS011;5992;52.744;6.898;2023-08-06T14:14:01;2.67;;;1.53;;
11865;SDS011;5992;52.744;6.898;2023-08-06T14:17:14;1.60;;;1.50;;
11865;SDS011;5992;52.744;6.898;2023-08-06T14:20:17;1.73;;;1.63;;
11865;SDS011;5992;52.744;6.898;2023-08-06T14:23:40;3.90;;;1.40;;
11865;SDS011;5992;52.744;6.898;2023-08-06T14:26:41;1.70;;;1.60;;
11865;SDS011;5992;52.744;6.898;2023-08-06T14:29:53;1.60;;;1.50;;
11865;SDS011;5992;52.744;6.898;2023-08-06T14:32:53;4.20;;;1.60;;
11865;SDS011;5992;52.744;6.898;2023-08-06T14:36:07;1.45;;;1.35;;
11865;SDS011;5992;52.744;6.898;2023-08-06T14:39:20;1.90;;;1.80;;
11865;SDS011;5992;52.744;6.898;2023-08-06T14:42:32;4.57;;;1.90;;
11865;SDS011;5992;52.744;6.898;2023-08-06T14:45:32;4.83;;;2.97;;
11865;SDS011;5992;52.744;6.898;2023-08-06T14:48:45;1.90;;;1.80;;
11865;SDS011;5992;52.744;6.898;2023-08-06T14:51:47;1.60;;;1.50;;
11865;SDS011;5992;52.744;6.898;2023-08-06T14:55:15;1.70;;;1.60;;
11865;SDS011;5992;52.744;6.898;2023-08-06T14:58:25;3.05;;;1.65;;
11865;SDS011;5992;52.744;6.898;2023-08-06T15:01:39;1.57;;;1.47;;
11865;SDS011;5992;52.744;6.898;2023-08-06T15:04:39;2.13;;;1.93;;
11865;SDS011;5992;52.744;6.898;2023-08-06T15:07:53;2.00;;;1.85;;
11865;SDS011;5992;52.744;6.898;2023-08-06T15:11:05;2.10;;;1.90;;
11865;SDS011;5992;52.744;6.898;2023-08-06T15:14:17;2.93;;;2.07;;
11865;SDS011;5992;52.744;6.898;2023-08-06T15:17:17;2.45;;;2.15;;
11865;SDS011;5992;52.744;6.898;2023-08-06T15:20:29;3.03;;;2.10;;
11865;SDS011;5992;52.744;6.898;2023-08-06T15:23:31;4.27;;;1.83;;
11865;SDS011;5992;52.744;6.898;2023-08-06T15:26:54;2.73;;;1.43;;
11865;SDS011;5992;52.744;6.898;2023-08-06T15:29:54;2.30;;;1.45;;
11865;SDS011;5992;52.744;6.898;2023-08-06T15:33:06;1.57;;;1.47;;
11865;SDS011;5992;52.744;6.898;2023-08-06T15:36:06;1.97;;;1.43;;
11865;SDS011;5992;52.744;6.898;2023-08-06T15:39:20;1.97;;;1.77;;
11865;SDS011;5992;52.744;6.898;2023-08-06T15:42:32;2.27;;;1.60;;
11865;SDS011;5992;52.744;6.898;2023-08-06T15:45:57;1.57;;;1.53;;
11865;SDS011;5992;52.744;6.898;2023-08-06T15:48:57;1.60;;;1.43;;
11865;SDS011;5992;52.744;6.898;2023-08-06T15:52:09;1.90;;;1.80;;
11865;SDS011;5992;52.744;6.898;2023-08-06T15:55:11;1.60;;;1.50;;
11865;SDS011;5992;52.744;6.898;2023-08-06T15:58:35;2.20;;;1.33;;
11865;SDS011;5992;52.744;6.898;2023-08-06T16:01:34;1.50;;;1.47;;
11865;SDS011;5992;52.744;6.898;2023-08-06T16:04:47;1.70;;;1.60;;
11865;SDS011;5992;52.744;6.898;2023-08-06T16:07:48;1.77;;;1.67;;
11865;SDS011;5992;52.744;6.898;2023-08-06T16:11:14;2.53;;;1.60;;
11865;SDS011;5992;52.744;6.898;2023-08-06T16:14:27;1.37;;;1.30;;
11865;SDS011;5992;52.744;6.898;2023-08-06T16:17:39;1.65;;;1.55;;
11865;SDS011;5992;52.744;6.898;2023-08-06T16:20:41;1.70;;;1.60;;
11865;SDS011;5992;52.744;6.898;2023-08-06T16:24:05;1.60;;;1.50;;
11865;SDS011;5992;52.744;6.898;2023-08-06T16:27:09;1.80;;;1.60;;
11865;SDS011;5992;52.744;6.898;2023-08-06T16:30:35;2.70;;;1.63;;
11865;SDS011;5992;52.744;6.898;2023-08-06T16:33:35;1.50;;;1.40;;
11865;SDS011;5992;52.744;6.898;2023-08-06T16:36:47;1.50;;;1.40;;
11865;SDS011;5992;52.744;6.898;2023-08-06T16:39:47;1.73;;;1.63;;
11865;SDS011;5992;52.744;6.898;2023-08-06T16:43:13;1.63;;;1.53;;
11865;SDS011;5992;52.744;6.898;2023-08-06T16:46:26;2.83;;;1.53;;
11865;SDS011;5992;52.744;6.898;2023-08-06T16:49:38;2.70;;;1.70;;
11865;SDS011;5992;52.744;6.898;2023-08-06T16:52:38;1.53;;;1.43;;
11865;SDS011;5992;52.744;6.898;2023-08-06T16:55:50;2.43;;;1.57;;
11865;SDS011;5992;52.744;6.898;2023-08-06T16:59:06;4.93;;;1.63;;
11865;SDS011;5992;52.744;6.898;2023-08-06T17:02:31;1.97;;;1.80;;
11865;SDS011;5992;52.744;6.898;2023-08-06T17:05:31;2.63;;;1.60;;
11865;SDS011;5992;52.744;6.898;2023-08-06T17:08:43;3.30;;;2.50;;
11865;SDS011;5992;52.744;6.898;2023-08-06T17:11:43;4.07;;;2.47;;
11865;SDS011;5992;52.744;6.898;2023-08-06T17:14:56;5.67;;;2.37;;
11865;SDS011;5992;52.744;6.898;2023-08-06T17:18:09;2.20;;;2.00;;
11865;SDS011;5992;52.744;6.898;2023-08-06T17:21:21;2.97;;;2.67;;
11865;SDS011;5992;52.744;6.898;2023-08-06T17:24:21;2.33;;;2.13;;
11865;SDS011;5992;52.744;6.898;2023-08-06T17:27:33;3.30;;;2.10;;
11865;SDS011;5992;52.744;6.898;2023-08-06T17:30:34;3.70;;;2.30;;
11865;SDS011;5992;52.744;6.898;2023-08-06T17:33:58;2.73;;;1.80;;
11865;SDS011;5992;52.744;6.898;2023-08-06T17:36:58;2.53;;;2.30;;
11865;SDS011;5992;52.744;6.898;2023-08-06T17:40:11;5.33;;;2.63;;
11865;SDS011;5992;52.744;6.898;2023-08-06T17:43:11;2.93;;;2.30;;
11865;SDS011;5992;52.744;6.898;2023-08-06T17:46:24;2.57;;;2.27;;
11865;SDS011;5992;52.744;6.898;2023-08-06T17:49:55;2.80;;;2.10;;
11865;SDS011;5992;52.744;6.898;2023-08-06T17:53:02;2.23;;;1.90;;
11865;SDS011;5992;52.744;6.898;2023-08-06T17:56:02;3.13;;;2.40;;
11865;SDS011;5992;52.744;6.898;2023-08-06T17:59:14;5.13;;;2.10;;
11865;SDS011;5992;52.744;6.898;2023-08-06T18:02:15;4.57;;;2.10;;
11865;SDS011;5992;52.744;6.898;2023-08-06T18:05:40;4.30;;;2.47;;
11865;SDS011;5992;52.744;6.898;2023-08-06T18:08:40;2.27;;;1.80;;
11865;SDS011;5992;52.744;6.898;2023-08-06T18:11:53;2.17;;;1.90;;
11865;SDS011;5992;52.744;6.898;2023-08-06T18:14:53;2.30;;;1.83;;
11865;SDS011;5992;52.744;6.898;2023-08-06T18:18:06;3.40;;;2.07;;
11865;SDS011;5992;52.744;6.898;2023-08-06T18:21:20;1.63;;;1.53;;
11865;SDS011;5992;52.744;6.898;2023-08-06T18:24:32;2.87;;;1.80;;
11865;SDS011;5992;52.744;6.898;2023-08-06T18:27:32;2.17;;;1.67;;
11865;SDS011;5992;52.744;6.898;2023-08-06T18:30:44;2.17;;;2.03;;
11865;SDS011;5992;52.744;6.898;2023-08-06T18:33:45;3.67;;;2.00;;
11865;SDS011;5992;52.744;6.898;2023-08-06T18:37:09;3.60;;;2.00;;
11865;SDS011;5992;52.744;6.898;2023-08-06T18:40:09;2.80;;;1.83;;
11865;SDS011;5992;52.744;6.898;2023-08-06T18:43:42;1.50;;;1.40;;
11865;SDS011;5992;52.744;6.898;2023-08-06T18:46:47;4.23;;;1.77;;
11865;SDS011;5992;52.744;6.898;2023-08-06T18:50:02;3.33;;;1.70;;
11865;SDS011;5992;52.744;6.898;2023-08-06T18:53:14;4.53;;;1.30;;
11865;SDS011;5992;52.744;6.898;2023-08-06T18:56:27;3.63;;;1.73;;
11865;SDS011;5992;52.744;6.898;2023-08-06T18:59:27;2.97;;;1.80;;
11865;SDS011;5992;52.744;6.898;2023-08-06T19:02:42;2.00;;;1.40;;
11865;SDS011;5992;52.744;6.898;2023-08-06T19:05:43;2.67;;;1.43;;
11865;SDS011;5992;52.744;6.898;2023-08-06T19:09:08;3.60;;;1.57;;
11865;SDS011;5992;52.744;6.898;2023-08-06T19:12:08;4.33;;;1.60;;
11865;SDS011;5992;52.744;6.898;2023-08-06T19:15:20;2.20;;;1.40;;
11865;SDS011;5992;52.744;6.898;2023-08-06T19:18:20;5.97;;;1.90;;
11865;SDS011;5992;52.744;6.898;2023-08-06T19:21:34;6.67;;;1.07;;
11865;SDS011;5992;52.744;6.898;2023-08-06T19:24:46;3.00;;;1.47;;
11865;SDS011;5992;52.744;6.898;2023-08-06T19:27:58;3.27;;;1.50;;
11865;SDS011;5992;52.744;6.898;2023-08-06T19:30:58;3.93;;;1.90;;
11865;SDS011;5992;52.744;6.898;2023-08-06T19:34:11;7.50;;;1.47;;
11865;SDS011;5992;52.744;6.898;2023-08-06T19:37:13;3.93;;;1.63;;
11865;SDS011;5992;52.744;6.898;2023-08-06T19:40:37;6.47;;;1.60;;